createdAt,value
2022-10-22T00:01:21.939Z,70.15
2022-10-22T00:03:48.910Z,70.59
2022-10-22T00:06:16.110Z,70.38
2022-10-22T00:08:43.084Z,69.71
2022-10-22T00:11:15.448Z,69.41
2022-10-22T00:13:42.874Z,69.33
2022-10-22T00:16:10.248Z,69.17
2022-10-22T00:18:37.816Z,69.44
2022-10-22T00:21:06.209Z,69.13
2022-10-22T00:23:33.649Z,69.64
2022-10-22T00:26:00.709Z,69.51
2022-10-22T00:28:27.869Z,69.53
2022-10-22T00:30:59.691Z,69.62
2022-10-22T00:33:29.030Z,69.56
2022-10-22T00:35:56.748Z,69.55
2022-10-22T00:38:24.070Z,69.77
2022-10-22T00:40:51.216Z,69.78
2022-10-22T00:43:19.630Z,69.48
2022-10-22T00:45:46.991Z,69.25
2022-10-22T00:48:23.668Z,69.50
2022-10-22T00:51:08.557Z,68.84
2022-10-22T00:53:39.849Z,68.54
2022-10-22T00:56:07.912Z,68.83
2022-10-22T00:58:39.170Z,68.86
2022-10-22T01:01:09.068Z,68.98
2022-10-22T01:03:36.370Z,69.75
2022-10-22T01:06:05.289Z,69.58
2022-10-22T01:08:46.815Z,69.48
2022-10-22T01:11:34.789Z,69.50
2022-10-22T01:14:13.968Z,69.67
2022-10-22T01:17:14.813Z,69.62
2022-10-22T01:20:10.934Z,69.55
2022-10-22T01:22:44.668Z,69.68
2022-10-22T01:25:34.537Z,69.37
2022-10-22T01:28:10.410Z,69.34
2022-10-22T01:30:39.749Z,69.47
2022-10-22T01:33:11.009Z,69.88
2022-10-22T01:35:42.238Z,70.01
2022-10-22T01:38:19.289Z,70.21
2022-10-22T01:40:47.917Z,70.19
2022-10-22T01:43:15.431Z,70.10
2022-10-22T01:45:54.534Z,70.22
2022-10-22T01:49:11.349Z,70.27
2022-10-22T01:52:05.090Z,70.26
2022-10-22T01:54:52.308Z,70.25
2022-10-22T01:57:33.849Z,70.26
2022-10-22T02:00:10.833Z,70.37
2022-10-22T02:02:53.569Z,70.16
2022-10-22T02:05:36.669Z,70.02
2022-10-22T02:08:11.357Z,69.72
2022-10-22T02:10:40.889Z,70.43
2022-10-22T02:13:16.132Z,70.25
2022-10-22T02:15:46.288Z,70.42
2022-10-22T02:18:15.508Z,69.91
2022-10-22T02:20:42.769Z,69.89
2022-10-22T02:23:10.730Z,70.00
2022-10-22T02:25:42.028Z,70.18
2022-10-22T02:28:22.609Z,70.39
2022-10-22T02:30:55.830Z,70.57
2022-10-22T02:33:28.950Z,70.39
2022-10-22T02:35:57.049Z,70.22
2022-10-22T02:38:25.949Z,70.19
2022-10-22T02:40:53.269Z,69.97
2022-10-22T02:43:20.388Z,70.04
2022-10-22T02:45:47.730Z,70.38
2022-10-22T02:48:14.831Z,70.24
2022-10-22T02:50:42.130Z,70.31
2022-10-22T02:53:09.110Z,70.06
2022-10-22T02:55:36.130Z,70.36
2022-10-22T02:58:03.129Z,69.97
2022-10-22T03:00:30.121Z,70.16
2022-10-22T03:02:57.189Z,70.17
2022-10-22T03:05:24.189Z,70.30
2022-10-22T03:07:51.209Z,70.55
2022-10-22T03:10:18.252Z,70.75
2022-10-22T03:12:45.249Z,70.47
2022-10-22T03:15:12.230Z,70.77
2022-10-22T03:17:39.382Z,70.53
2022-10-22T03:20:07.078Z,70.07
2022-10-22T03:22:36.310Z,70.16
2022-10-22T03:25:10.490Z,69.89
2022-10-22T03:27:40.007Z,69.75
2022-10-22T03:30:08.289Z,70.04
2022-10-22T03:32:35.329Z,69.82
2022-10-22T03:35:02.370Z,70.15
2022-10-22T03:37:30.429Z,70.24
2022-10-22T03:39:58.048Z,70.16
2022-10-22T03:42:25.290Z,70.53
2022-10-22T03:44:52.809Z,71.07
2022-10-22T03:47:19.909Z,70.93
2022-10-22T03:49:46.888Z,71.06
2022-10-22T03:52:14.788Z,71.13
2022-10-22T03:54:42.691Z,71.44
2022-10-22T03:57:10.630Z,70.77
2022-10-22T03:59:43.757Z,70.73
2022-10-22T04:02:13.228Z,70.99
2022-10-22T04:04:40.510Z,70.28
2022-10-22T04:07:08.549Z,69.78
2022-10-22T04:09:36.148Z,69.94
2022-10-22T04:12:05.689Z,69.90
2022-10-22T04:14:32.858Z,70.14
2022-10-22T04:16:59.969Z,70.43
2022-10-22T04:19:27.179Z,70.55
2022-10-22T04:21:54.372Z,70.83
2022-10-22T04:24:21.968Z,70.91
2022-10-22T04:26:49.129Z,71.03
2022-10-22T04:29:16.582Z,71.21
2022-10-22T04:31:43.928Z,70.87
2022-10-22T04:34:11.409Z,70.77
2022-10-22T04:36:38.608Z,71.49
2022-10-22T04:39:06.529Z,71.53
2022-10-22T04:41:37.578Z,71.55
2022-10-22T04:44:05.887Z,71.67
2022-10-22T04:46:35.090Z,71.96
2022-10-22T04:49:04.248Z,71.35
2022-10-22T04:51:32.369Z,71.43
2022-10-22T04:53:59.616Z,72.21
2022-10-22T04:56:30.138Z,71.86
2022-10-22T04:59:00.089Z,71.25
2022-10-22T05:01:31.095Z,71.23
2022-10-22T05:04:00.848Z,70.94
2022-10-22T05:06:30.010Z,70.90
2022-10-22T05:09:00.453Z,71.13
2022-10-22T05:11:31.050Z,70.76
2022-10-22T05:14:00.328Z,70.46
2022-10-22T05:16:29.654Z,70.47
2022-10-22T05:18:59.409Z,70.92
2022-10-22T05:21:27.088Z,70.95
2022-10-22T05:23:55.610Z,70.63
2022-10-22T05:26:24.009Z,69.95
2022-10-22T05:28:52.572Z,70.02
2022-10-22T05:31:20.609Z,69.97
2022-10-22T05:33:48.017Z,70.55
2022-10-22T05:36:18.735Z,70.60
2022-10-22T05:38:46.093Z,71.03
2022-10-22T05:41:18.975Z,70.91
2022-10-22T05:43:46.531Z,71.44
2022-10-22T05:46:22.007Z,71.47
2022-10-22T05:48:51.700Z,71.52
2022-10-22T05:51:20.212Z,71.48
2022-10-22T05:53:53.019Z,71.64
2022-10-22T05:56:20.329Z,71.97
2022-10-22T05:58:48.123Z,71.88
2022-10-22T06:01:24.849Z,71.97
2022-10-22T06:03:56.857Z,71.19
2022-10-22T06:06:32.130Z,71.05
2022-10-22T06:09:04.491Z,71.00
2022-10-22T06:11:34.319Z,71.36
2022-10-22T06:14:03.290Z,71.27
2022-10-22T06:16:31.651Z,71.31
2022-10-22T06:19:02.448Z,71.82
2022-10-22T06:21:30.898Z,71.52
2022-10-22T06:23:59.688Z,71.76
2022-10-22T06:26:27.529Z,72.12
2022-10-22T06:28:56.610Z,72.19
2022-10-22T06:31:25.772Z,71.42
2022-10-22T06:33:53.129Z,71.27
2022-10-22T06:36:24.809Z,71.50
2022-10-22T06:38:55.810Z,71.71
2022-10-22T06:41:27.060Z,71.71
2022-10-22T06:43:57.908Z,71.83
2022-10-22T06:46:26.569Z,71.70
2022-10-22T06:49:01.848Z,71.64
2022-10-22T06:51:29.691Z,71.64
2022-10-22T06:53:58.088Z,71.50
2022-10-22T06:56:28.451Z,71.33
2022-10-22T06:58:57.422Z,71.31
2022-10-22T07:01:28.194Z,71.53
2022-10-22T07:03:55.611Z,71.28
2022-10-22T07:06:24.929Z,71.66
2022-10-22T07:08:53.818Z,71.31
2022-10-22T07:11:22.540Z,71.45
2022-10-22T07:13:50.490Z,71.11
2022-10-22T07:16:18.611Z,71.02
2022-10-22T07:18:47.148Z,71.81
2022-10-22T07:21:17.132Z,71.76
2022-10-22T07:23:45.267Z,71.52
2022-10-22T07:26:15.250Z,71.65
2022-10-22T07:28:42.569Z,71.75
2022-10-22T07:31:12.172Z,71.17
2022-10-22T07:33:39.530Z,71.95
2022-10-22T07:36:09.900Z,71.87
2022-10-22T07:38:37.458Z,71.60
2022-10-22T07:41:05.250Z,71.25
2022-10-22T07:43:32.409Z,71.59
2022-10-22T07:46:00.648Z,71.11
2022-10-22T07:48:27.650Z,70.98
2022-10-22T07:50:55.259Z,71.17
2022-10-22T07:53:22.612Z,71.18
2022-10-22T07:55:50.691Z,70.98
2022-10-22T07:58:19.410Z,70.83
2022-10-22T08:00:47.538Z,70.93
2022-10-22T08:03:15.537Z,70.81
2022-10-22T08:05:46.299Z,70.92
2022-10-22T08:08:14.778Z,70.58
2022-10-22T08:10:42.656Z,71.19
2022-10-22T08:13:09.938Z,71.41
2022-10-22T08:15:37.618Z,71.81
2022-10-22T08:18:05.769Z,71.29
2022-10-22T08:20:32.969Z,71.75
2022-10-22T08:23:00.130Z,71.69
2022-10-22T08:25:28.208Z,71.40
2022-10-22T08:27:55.448Z,71.22
2022-10-22T08:30:23.049Z,70.96
2022-10-22T08:32:53.158Z,71.02
2022-10-22T08:35:21.890Z,71.00
2022-10-22T08:37:49.048Z,70.69
2022-10-22T08:40:25.971Z,71.17
2022-10-22T08:43:14.648Z,71.83
2022-10-22T08:46:07.967Z,71.43
2022-10-22T08:48:46.529Z,70.98
2022-10-22T08:51:27.616Z,71.00
2022-10-22T08:54:12.731Z,70.90
2022-10-22T08:56:43.898Z,70.79
2022-10-22T08:59:15.448Z,70.56
2022-10-22T09:01:47.328Z,70.45
2022-10-22T09:04:48.168Z,70.37
2022-10-22T09:07:15.690Z,70.21
2022-10-22T09:09:49.571Z,69.69
2022-10-22T09:12:20.296Z,69.86
2022-10-22T09:14:47.857Z,69.54
2022-10-22T09:17:50.651Z,69.35
2022-10-22T09:20:28.969Z,69.31
2022-10-22T09:23:29.848Z,68.71
2022-10-22T09:25:57.978Z,68.26
2022-10-22T09:28:25.065Z,67.94
2022-10-22T09:30:52.427Z,67.66
2022-10-22T09:33:29.130Z,68.25
2022-10-22T09:36:03.736Z,68.60
2022-10-22T09:38:34.408Z,68.29
2022-10-22T09:41:05.612Z,68.91
2022-10-22T09:43:33.928Z,68.81
2022-10-22T09:46:05.369Z,68.77
2022-10-22T09:48:39.650Z,68.65
2022-10-22T09:51:36.648Z,68.83
2022-10-22T09:54:16.690Z,68.51
2022-10-22T09:56:50.969Z,67.98
2022-10-22T09:59:20.169Z,67.57
2022-10-22T10:01:47.332Z,67.40
2022-10-22T10:04:16.854Z,67.46
2022-10-22T10:06:45.252Z,67.42
2022-10-22T10:09:22.655Z,67.06
2022-10-22T10:11:57.453Z,67.50
2022-10-22T10:14:53.610Z,67.60
2022-10-22T10:17:33.008Z,67.24
2022-10-22T10:20:24.928Z,67.34
2022-10-22T10:23:03.928Z,67.32
2022-10-22T10:25:52.734Z,67.75
2022-10-22T10:28:22.692Z,67.62
2022-10-22T10:31:02.811Z,67.58
2022-10-22T10:34:07.493Z,67.86
2022-10-22T10:36:50.212Z,67.75
2022-10-22T10:40:08.288Z,67.54
2022-10-22T10:43:07.649Z,67.74
2022-10-22T10:45:50.365Z,67.67
2022-10-22T10:48:45.172Z,67.70
2022-10-22T10:51:22.449Z,67.60
2022-10-22T10:54:14.579Z,67.86
2022-10-22T10:56:47.928Z,68.03
2022-10-22T10:59:38.568Z,68.13
2022-10-22T11:13:39.891Z,70.42
2022-10-22T11:16:25.290Z,70.91
2022-10-22T11:18:55.692Z,71.19
2022-10-22T11:21:47.468Z,71.50
2022-10-22T11:24:23.496Z,71.89
2022-10-22T11:27:07.412Z,71.94
2022-10-22T11:29:42.052Z,71.86
2022-10-22T11:32:19.812Z,71.28
2022-10-22T11:35:08.851Z,71.36
2022-10-22T11:37:39.489Z,70.87
2022-10-22T11:40:22.173Z,70.75
2022-10-22T11:43:04.493Z,71.19
2022-10-22T11:45:38.850Z,71.11
2022-10-22T11:48:07.052Z,70.51
2022-10-22T11:50:47.494Z,70.12
2022-10-22T11:53:14.729Z,69.77
2022-10-22T11:56:00.493Z,69.71
2022-10-22T11:58:29.852Z,69.92
2022-10-22T12:01:10.184Z,69.80
2022-10-22T12:03:41.339Z,69.84
2022-10-22T12:06:12.339Z,69.77
2022-10-22T12:08:49.659Z,69.04
2022-10-22T12:11:19.691Z,68.47
2022-10-22T12:14:01.831Z,68.18
2022-10-22T12:16:55.785Z,68.06
2022-10-22T12:19:23.973Z,67.65
2022-10-22T12:22:11.210Z,67.51
2022-10-22T12:24:42.529Z,67.52
2022-10-22T12:27:37.582Z,67.99
2022-10-22T12:30:26.463Z,68.63
2022-10-22T12:32:55.940Z,68.59
2022-10-22T12:35:26.533Z,68.58
2022-10-22T12:38:00.580Z,69.03
2022-10-22T12:40:35.811Z,69.01
2022-10-22T12:43:12.810Z,69.06
2022-10-22T12:45:41.649Z,69.31
2022-10-22T12:48:22.898Z,69.74
2022-10-22T12:50:53.816Z,70.19
2022-10-22T12:53:40.130Z,70.40
2022-10-22T12:56:13.090Z,70.58
2022-10-22T12:58:44.529Z,70.87
2022-10-22T13:01:17.674Z,70.86
2022-10-22T13:03:47.775Z,70.94
2022-10-22T13:06:21.017Z,70.75
2022-10-22T13:09:00.640Z,70.81
2022-10-22T13:11:39.290Z,70.83
2022-10-22T13:14:20.739Z,70.79
2022-10-22T13:17:20.049Z,70.72
2022-10-22T13:19:53.290Z,71.26
2022-10-22T13:22:37.453Z,71.43
2022-10-22T13:25:17.569Z,71.72
2022-10-22T13:27:50.970Z,71.92
2022-10-22T13:30:25.649Z,72.35
2022-10-22T13:32:57.090Z,72.13
2022-10-22T13:35:28.569Z,72.30
2022-10-22T13:37:55.852Z,72.42
2022-10-22T13:40:23.104Z,72.75
2022-10-22T13:42:50.415Z,72.77
2022-10-22T13:45:18.211Z,72.72
2022-10-22T13:47:50.057Z,73.03
2022-10-22T13:50:19.930Z,73.24
2022-10-22T13:52:50.022Z,73.78
2022-10-22T13:55:23.088Z,73.96
2022-10-22T13:57:50.300Z,73.15
2022-10-22T14:00:20.410Z,73.50
2022-10-22T14:02:50.852Z,73.24
2022-10-22T14:05:19.257Z,73.29
2022-10-22T14:07:47.329Z,73.30
2022-10-22T14:10:16.314Z,73.83
2022-10-22T14:12:43.571Z,72.83
2022-10-22T14:15:13.448Z,74.38
2022-10-22T14:17:44.432Z,74.04
2022-10-22T14:20:19.454Z,74.13
2022-10-22T14:22:47.850Z,73.45
2022-10-22T14:25:21.379Z,74.90
2022-10-22T14:27:48.930Z,74.20
2022-10-22T14:30:22.531Z,74.47
2022-10-22T14:32:50.452Z,74.86
2022-10-22T14:35:20.537Z,75.13
2022-10-22T14:38:07.816Z,74.92
2022-10-22T14:40:35.170Z,74.87
2022-10-22T14:43:02.331Z,75.08
2022-10-22T14:45:29.732Z,75.26
2022-10-22T14:47:57.612Z,74.79
2022-10-22T14:50:25.692Z,75.31
2022-10-22T14:52:53.089Z,75.21
2022-10-22T14:55:20.612Z,75.61
2022-10-22T14:57:47.772Z,75.92
2022-10-22T15:00:17.649Z,75.59
2022-10-22T15:02:45.570Z,75.88
2022-10-22T15:05:12.812Z,75.87
2022-10-22T15:07:40.453Z,75.38
2022-10-22T15:10:09.095Z,75.61
2022-10-22T15:12:36.689Z,75.38
2022-10-22T15:15:04.852Z,75.05
2022-10-22T15:17:31.888Z,75.70
2022-10-22T15:20:01.410Z,75.66
2022-10-22T15:22:29.058Z,75.40
2022-10-22T15:24:56.208Z,75.74
2022-10-22T15:27:23.369Z,75.61
2022-10-22T15:29:50.673Z,75.97
2022-10-22T15:32:17.891Z,76.08
2022-10-22T15:34:45.089Z,76.52
2022-10-22T15:37:13.369Z,76.24
2022-10-22T15:39:41.612Z,76.28
2022-10-22T15:42:09.817Z,76.43
2022-10-22T15:44:37.410Z,76.16
2022-10-22T15:47:06.657Z,76.45
2022-10-22T15:49:36.215Z,76.61
2022-10-22T15:52:04.052Z,76.84
2022-10-22T15:54:31.699Z,76.82
2022-10-22T15:57:00.414Z,76.44
2022-10-22T15:59:28.010Z,76.86
2022-10-22T16:01:55.426Z,76.67
2022-10-22T16:04:22.729Z,76.62
2022-10-22T16:06:55.453Z,76.54
2022-10-22T16:09:24.892Z,76.34
2022-10-22T16:14:40.810Z,76.38
2022-10-22T16:17:08.059Z,76.58
2022-10-22T16:19:35.332Z,75.93
2022-10-22T16:22:03.630Z,75.60
2022-10-22T16:24:30.421Z,76.16
2022-10-22T16:26:57.546Z,76.14
2022-10-22T16:29:24.653Z,75.99
2022-10-22T16:31:51.563Z,75.90
2022-10-22T16:34:18.511Z,76.03
2022-10-22T16:36:45.624Z,76.05
2022-10-22T16:39:12.562Z,76.41
2022-10-22T16:41:39.550Z,76.46
2022-10-22T16:44:08.101Z,76.70
2022-10-22T16:46:38.573Z,76.73
2022-10-22T16:49:06.732Z,76.57
2022-10-22T16:51:34.289Z,76.57
2022-10-22T16:54:01.235Z,76.36
2022-10-22T16:56:28.279Z,76.26
2022-10-22T16:58:57.541Z,76.29
2022-10-22T17:01:26.683Z,76.10
2022-10-22T17:03:56.951Z,76.23
2022-10-22T17:06:25.021Z,76.06
2022-10-22T17:08:52.301Z,75.89
2022-10-22T17:11:22.177Z,75.42
2022-10-22T17:13:52.845Z,75.15
2022-10-22T17:16:24.881Z,75.27
2022-10-22T17:18:53.467Z,74.85
2022-10-22T17:21:21.519Z,75.14
2022-10-22T17:23:48.640Z,75.09
2022-10-22T17:26:20.600Z,75.33
2022-10-22T17:28:48.300Z,74.93
2022-10-22T17:31:24.768Z,75.09
2022-10-22T17:33:53.205Z,75.14
2022-10-22T17:36:21.743Z,74.80
2022-10-22T17:38:51.321Z,74.68
2022-10-22T17:41:21.051Z,74.61
2022-10-22T17:43:48.571Z,74.55
2022-10-22T17:46:24.230Z,74.91
2022-10-22T17:48:53.112Z,74.88
2022-10-22T17:51:21.780Z,75.12
2022-10-22T17:53:52.641Z,75.34
2022-10-22T17:56:21.792Z,75.41
2022-10-22T17:58:49.604Z,75.25
2022-10-22T18:01:35.026Z,75.05
2022-10-22T18:04:08.103Z,74.85
2022-10-22T18:06:36.030Z,75.03
2022-10-22T18:09:08.332Z,75.29
2022-10-22T18:11:37.552Z,75.17
2022-10-22T18:14:05.530Z,75.29
2022-10-22T18:16:32.761Z,74.69
2022-10-22T18:18:59.919Z,74.95
2022-10-22T18:21:28.760Z,74.95
2022-10-22T18:23:57.397Z,75.27
2022-10-22T18:26:26.905Z,75.47
2022-10-22T18:28:55.180Z,75.31
2022-10-22T18:31:24.533Z,75.58
2022-10-22T18:33:51.600Z,75.50
2022-10-22T18:36:21.560Z,75.47
2022-10-22T18:38:52.601Z,74.92
2022-10-22T18:41:20.105Z,74.26
2022-10-22T18:43:55.603Z,74.40
2022-10-22T18:46:24.145Z,74.07
2022-10-22T18:48:58.411Z,74.46
2022-10-22T18:51:30.299Z,74.67
2022-10-22T18:54:05.376Z,74.65
2022-10-22T18:56:40.908Z,74.70
2022-10-22T18:59:15.341Z,74.94
2022-10-22T19:01:42.390Z,74.93
2022-10-22T19:04:09.404Z,75.19
2022-10-22T19:06:37.064Z,75.08
2022-10-22T19:09:05.559Z,75.12
2022-10-22T19:11:32.962Z,74.79
2022-10-22T19:13:59.915Z,74.77
2022-10-22T19:16:28.751Z,74.84
2022-10-22T19:19:07.072Z,74.56
2022-10-22T19:21:34.363Z,74.35
2022-10-22T19:24:01.625Z,74.71
2022-10-22T19:26:29.480Z,74.41
2022-10-22T19:28:58.483Z,74.47
2022-10-22T19:31:26.721Z,74.12
2022-10-22T19:33:56.733Z,74.49
2022-10-22T19:36:25.521Z,74.85
2022-10-22T19:38:52.781Z,74.47
2022-10-22T19:41:21.562Z,74.22
2022-10-22T19:43:50.521Z,74.22
2022-10-22T19:46:18.582Z,73.99
2022-10-22T19:51:34.700Z,73.96
2022-10-22T19:54:06.950Z,73.68
2022-10-22T19:56:35.772Z,73.93
2022-10-22T19:59:04.143Z,74.23
2022-10-22T20:01:32.150Z,74.30
2022-10-22T20:03:59.120Z,74.36
2022-10-22T20:06:26.090Z,74.30
2022-10-22T20:08:55.976Z,74.46
2022-10-22T20:11:29.240Z,74.61
2022-10-22T20:13:57.464Z,74.38
2022-10-22T20:16:28.682Z,74.22
2022-10-22T20:19:00.152Z,74.21
2022-10-22T20:21:27.151Z,74.08
2022-10-22T20:23:56.551Z,74.24
2022-10-22T20:26:25.999Z,74.29
2022-10-22T20:28:52.921Z,74.57
2022-10-22T20:31:21.961Z,74.47
2022-10-22T20:33:50.950Z,74.52
2022-10-22T20:36:21.661Z,74.26
2022-10-22T20:38:49.641Z,74.33
2022-10-22T20:41:21.911Z,74.63
2022-10-22T20:43:50.950Z,74.65
2022-10-22T20:46:25.329Z,74.31
2022-10-22T20:48:54.061Z,74.58
2022-10-22T20:51:21.610Z,74.40
2022-10-22T20:53:48.581Z,75.20
2022-10-22T20:56:16.721Z,75.04
2022-10-22T20:58:48.380Z,74.61
2022-10-22T21:01:22.349Z,74.44
2022-10-22T21:03:52.500Z,74.40
2022-10-22T21:06:23.417Z,74.28
2022-10-22T21:08:51.851Z,74.42
2022-10-22T21:11:19.222Z,74.25
2022-10-22T21:13:46.471Z,74.09
2022-10-22T21:16:15.169Z,73.94
2022-10-22T21:18:42.042Z,73.32
2022-10-22T21:21:09.563Z,73.21
2022-10-22T21:23:36.965Z,73.19
2022-10-22T21:26:05.258Z,73.11
2022-10-22T21:28:36.422Z,72.88
2022-10-22T21:31:05.941Z,72.70
2022-10-22T21:33:39.171Z,72.56
2022-10-22T21:36:07.160Z,73.07
2022-10-22T21:38:35.360Z,73.06
2022-10-22T21:41:08.178Z,73.08
2022-10-22T21:43:38.223Z,73.29
2022-10-22T21:46:09.781Z,73.28
2022-10-22T21:48:38.168Z,73.36
2022-10-22T21:51:10.413Z,73.41
2022-10-22T21:53:37.898Z,73.78
2022-10-22T21:56:05.671Z,73.73
2022-10-22T21:58:35.763Z,73.84
2022-10-22T22:01:03.170Z,74.06
2022-10-22T22:03:30.481Z,74.21
2022-10-22T22:05:59.523Z,73.84
2022-10-22T22:08:27.070Z,73.26
2022-10-22T22:11:01.104Z,72.59
2022-10-22T22:13:28.343Z,73.00
2022-10-22T22:16:00.060Z,73.00
2022-10-22T22:18:27.101Z,73.35
2022-10-22T22:20:54.022Z,73.46
2022-10-22T22:23:20.942Z,73.19
2022-10-22T22:25:47.939Z,73.79
2022-10-22T22:28:14.850Z,73.51
2022-10-22T22:30:41.760Z,73.31
2022-10-22T22:33:08.900Z,72.99
2022-10-22T22:35:37.200Z,72.73
2022-10-22T22:38:04.040Z,72.82
2022-10-22T22:40:33.731Z,72.66
2022-10-22T22:43:00.951Z,72.67
2022-10-22T22:45:27.900Z,72.89
2022-10-22T22:47:54.871Z,72.50
2022-10-22T22:50:21.789Z,72.31
2022-10-22T22:52:48.670Z,72.17
2022-10-22T22:55:15.740Z,72.06
2022-10-22T22:57:42.649Z,72.53
2022-10-22T23:00:10.362Z,72.42
2022-10-22T23:02:37.383Z,72.15
2022-10-22T23:05:04.468Z,72.42
2022-10-22T23:07:31.488Z,72.91
2022-10-22T23:09:58.440Z,72.50
2022-10-22T23:12:25.399Z,72.85
2022-10-22T23:14:52.370Z,72.88
2022-10-22T23:17:19.970Z,73.45
2022-10-22T23:19:46.961Z,73.52
2022-10-22T23:22:13.881Z,73.71
2022-10-22T23:24:40.926Z,73.77
2022-10-22T23:27:07.882Z,73.36
2022-10-22T23:29:36.570Z,73.27
2022-10-22T23:32:05.409Z,73.38
2022-10-22T23:34:32.946Z,74.18
2022-10-22T23:36:59.990Z,73.97
2022-10-22T23:39:28.859Z,73.74
2022-10-22T23:41:56.349Z,74.16
2022-10-22T23:44:24.353Z,74.34
2022-10-22T23:46:51.473Z,74.12
2022-10-22T23:49:18.848Z,74.45
2022-10-22T23:51:46.061Z,73.77
2022-10-22T23:54:18.602Z,74.28
2022-10-22T23:56:45.718Z,73.95
